createdAt,value
2022-09-05T00:02:05.975Z,1.98
2022-09-05T00:04:59.626Z,2.00
2022-09-05T00:07:59.067Z,2.10
2022-09-05T00:10:50.336Z,2.42
2022-09-05T00:13:34.649Z,2.22
2022-09-05T00:16:13.841Z,2.15
2022-09-05T00:24:22.914Z,2.50
2022-09-05T00:24:27.974Z,2.23
2022-09-05T00:25:38.536Z,2.33
2022-09-05T00:31:55.941Z,2.28
2022-09-05T00:34:47.429Z,2.13
2022-09-05T00:37:27.200Z,2.28
2022-09-05T00:40:17.367Z,2.10
2022-09-05T00:42:45.634Z,2.22
2022-09-05T00:45:20.848Z,2.50
2022-09-05T00:48:16.656Z,2.70
2022-09-05T00:50:54.057Z,2.65
2022-09-05T00:53:31.053Z,2.38
2022-09-05T00:56:19.502Z,2.97
2022-09-05T00:59:23.996Z,2.40
2022-09-05T01:01:56.430Z,2.50
2022-09-05T01:04:51.779Z,2.58
2022-09-05T01:07:49.666Z,2.47
2022-09-05T01:10:49.250Z,2.78
2022-09-05T01:13:45.336Z,2.53
2022-09-05T01:16:30.916Z,2.47
2022-09-05T01:19:19.281Z,2.65
2022-09-05T01:22:14.445Z,2.78
2022-09-05T01:25:02.699Z,2.53
2022-09-05T01:28:54.991Z,2.70
2022-09-05T01:30:49.282Z,2.72
2022-09-05T01:33:25.577Z,2.65
2022-09-05T01:36:18.555Z,2.55
2022-09-05T01:40:12.244Z,2.70
2022-09-05T01:42:39.032Z,2.45
2022-09-05T01:45:31.763Z,2.60
2022-09-05T01:48:21.770Z,2.30
2022-09-05T01:50:50.179Z,2.55
2022-09-05T01:53:26.021Z,2.35
2022-09-05T01:56:11.857Z,2.58
2022-09-05T01:58:55.010Z,2.17
2022-09-05T02:01:32.619Z,2.35
2022-09-05T02:04:25.554Z,2.30
2022-09-05T02:07:19.943Z,2.47
2022-09-05T02:10:27.875Z,2.70
2022-09-05T02:13:03.644Z,2.53
2022-09-05T02:15:59.664Z,3.08
2022-09-05T02:18:55.055Z,3.08
2022-09-05T02:21:30.306Z,3.35
2022-09-05T02:24:08.400Z,3.30
2022-09-05T02:26:46.335Z,3.42
2022-09-05T02:29:35.537Z,3.50
2022-09-05T02:32:13.375Z,3.30
2022-09-05T02:34:54.554Z,3.30
2022-09-05T02:39:19.969Z,3.70
2022-09-05T02:45:15.177Z,3.47
2022-09-05T02:45:24.545Z,3.60
2022-09-05T02:46:53.555Z,3.45
2022-09-05T02:53:57.743Z,3.35
2022-09-05T02:57:33.013Z,3.63
2022-09-05T02:57:37.223Z,3.03
2022-09-05T02:59:09.756Z,3.17
2022-09-05T03:01:42.785Z,3.20
2022-09-05T03:04:18.410Z,2.95
2022-09-05T03:07:08.760Z,2.88
2022-09-05T03:10:04.743Z,3.22
2022-09-05T03:13:03.718Z,2.95
2022-09-05T03:16:07.228Z,2.85
2022-09-05T03:18:58.819Z,3.25
2022-09-05T03:22:03.396Z,3.22
2022-09-05T03:24:55.805Z,3.28
2022-09-05T03:27:48.559Z,3.20
2022-09-05T03:30:20.977Z,2.63
2022-09-05T03:32:59.686Z,3.10
2022-09-05T03:35:41.537Z,2.80
2022-09-05T03:38:36.056Z,3.03
2022-09-05T03:41:08.806Z,3.20
2022-09-05T03:44:22.627Z,3.33
2022-09-05T03:47:26.629Z,2.75
2022-09-05T03:55:41.135Z,2.65
2022-09-05T03:57:13.436Z,2.80
2022-09-05T03:57:16.931Z,2.88
2022-09-05T04:00:04.673Z,3.03
2022-09-05T04:03:40.839Z,2.92
2022-09-05T04:08:24.161Z,2.78
2022-09-05T04:08:41.975Z,3.05
2022-09-05T04:11:18.472Z,3.05
2022-09-05T04:13:51.709Z,2.72
2022-09-05T04:16:25.310Z,2.80
2022-09-05T04:18:56.432Z,3.00
2022-09-05T04:21:34.483Z,3.15
2022-09-05T04:24:28.743Z,2.92
2022-09-05T04:27:27.723Z,3.00
2022-09-05T04:30:00.037Z,2.65
2022-09-05T04:32:54.872Z,2.90
2022-09-05T04:35:26.478Z,2.95
2022-09-05T04:38:06.228Z,2.95
2022-09-05T04:41:03.493Z,2.83
2022-09-05T04:43:36.386Z,3.00
2022-09-05T04:46:28.820Z,2.83
2022-09-05T04:49:14.240Z,2.88
2022-09-05T04:52:01.012Z,2.97
2022-09-05T04:55:01.931Z,3.05
2022-09-05T04:57:34.262Z,3.40
2022-09-05T05:05:58.427Z,3.05
2022-09-05T05:06:15.113Z,3.00
2022-09-05T05:06:35.099Z,2.63
2022-09-05T05:09:08.581Z,2.75
2022-09-05T05:16:03.651Z,3.10
2022-09-05T05:18:00.551Z,3.33
2022-09-05T05:18:13.564Z,3.53
2022-09-05T05:20:42.355Z,2.60
2022-09-05T05:23:13.147Z,3.17
2022-09-05T05:26:01.799Z,3.45
2022-09-05T05:28:46.477Z,3.40
2022-09-05T05:31:22.480Z,3.25
2022-09-05T05:33:51.920Z,3.13
2022-09-05T05:36:28.349Z,2.95
2022-09-05T05:39:15.231Z,2.58
2022-09-05T05:41:41.730Z,3.88
2022-09-05T05:44:36.171Z,2.97
2022-09-05T05:47:09.300Z,3.10
2022-09-05T05:49:43.690Z,3.35
2022-09-05T05:52:35.047Z,2.92
2022-09-05T05:55:24.349Z,3.33
2022-09-05T05:58:12.104Z,3.25
2022-09-05T06:00:51.920Z,3.20
2022-09-05T06:04:09.952Z,3.50
2022-09-05T06:06:57.076Z,3.35
2022-09-05T06:14:50.972Z,2.80
2022-09-05T06:15:07.082Z,3.03
2022-09-05T06:16:31.618Z,3.67
2022-09-05T06:19:59.649Z,3.20
2022-09-05T06:22:46.175Z,2.63
2022-09-05T06:25:18.681Z,3.08
2022-09-05T06:28:18.720Z,3.10
2022-09-05T06:31:29.090Z,3.03
2022-09-05T06:34:41.819Z,2.97
2022-09-05T06:37:34.325Z,2.85
2022-09-05T06:40:18.391Z,3.17
2022-09-05T06:42:57.084Z,2.60
2022-09-05T06:45:32.058Z,2.88
2022-09-05T06:48:36.615Z,3.15
2022-09-05T06:51:18.070Z,2.97
2022-09-05T06:53:53.563Z,2.58
2022-09-05T06:56:47.201Z,2.83
2022-09-05T06:59:34.452Z,2.90
2022-09-05T07:02:25.728Z,2.70
2022-09-05T07:05:50.469Z,2.75
2022-09-05T07:08:35.035Z,2.60
2022-09-05T07:11:16.101Z,2.72
2022-09-05T07:14:03.342Z,2.38
2022-09-05T07:16:39.231Z,2.70
2022-09-05T07:19:27.715Z,2.30
2022-09-05T07:22:47.813Z,2.13
2022-09-05T07:25:18.722Z,2.17
2022-09-05T07:28:26.456Z,1.90
2022-09-05T07:30:46.951Z,1.98
2022-09-05T07:33:22.553Z,2.10
2022-09-05T07:35:51.651Z,2.00
2022-09-05T07:38:52.398Z,2.00
2022-09-05T07:41:28.725Z,2.40
2022-09-05T07:44:06.563Z,2.10
2022-09-05T07:46:38.246Z,2.42
2022-09-05T07:49:09.352Z,2.13
2022-09-05T07:56:53.193Z,2.40
2022-09-05T07:57:02.364Z,1.88
2022-09-05T07:57:45.254Z,2.60
2022-09-05T08:00:25.546Z,2.15
2022-09-05T08:02:55.172Z,1.77
2022-09-05T08:05:34.471Z,1.85
2022-09-05T08:08:06.920Z,1.88
2022-09-05T08:11:22.469Z,2.05
2022-09-05T08:13:42.487Z,1.73
2022-09-05T08:16:18.136Z,2.10
2022-09-05T08:19:04.378Z,1.67
2022-09-05T08:21:43.876Z,2.00
2022-09-05T08:24:23.832Z,2.55
2022-09-05T08:27:16.974Z,2.30
2022-09-05T08:33:10.544Z,1.75
2022-09-05T08:36:03.714Z,1.95
2022-09-05T08:38:41.195Z,2.03
2022-09-05T08:41:15.362Z,2.10
2022-09-05T08:46:35.412Z,1.88
2022-09-05T08:46:50.174Z,1.80
2022-09-05T08:49:44.090Z,1.80
2022-09-05T08:52:34.329Z,1.67
2022-09-05T08:55:25.430Z,1.75
2022-09-05T08:58:02.311Z,2.05
2022-09-05T09:00:38.194Z,1.40
2022-09-05T09:03:26.472Z,1.83
2022-09-05T09:06:13.363Z,1.50
2022-09-05T09:09:06.932Z,1.52
2022-09-05T09:12:11.531Z,1.23
2022-09-05T09:14:55.503Z,1.70
2022-09-05T09:17:32.198Z,1.55
2022-09-05T09:20:15.064Z,1.50
2022-09-05T09:22:44.750Z,1.20
2022-09-05T09:25:25.130Z,1.55
2022-09-05T09:28:47.373Z,1.25
2022-09-05T09:30:54.866Z,1.10
2022-09-05T09:33:36.994Z,1.30
2022-09-05T09:36:25.665Z,1.25
2022-09-05T09:39:37.150Z,1.20
2022-09-05T09:42:18.974Z,1.20
2022-09-05T09:45:32.027Z,1.02
2022-09-05T09:48:10.569Z,1.40
2022-09-05T09:51:02.730Z,1.10
2022-09-05T09:53:47.675Z,1.10
2022-09-05T09:56:30.754Z,1.52
2022-09-05T09:59:31.613Z,1.15
2022-09-05T10:02:45.346Z,1.17
2022-09-05T10:10:51.124Z,1.20
2022-09-05T10:11:08.799Z,1.05
2022-09-05T10:12:09.642Z,1.00
2022-09-05T10:15:04.260Z,1.10
2022-09-05T10:18:09.744Z,1.30
2022-09-05T10:20:39.514Z,1.10
2022-09-05T10:23:31.133Z,0.95
2022-09-05T10:26:21.909Z,0.90
2022-09-05T10:29:33.239Z,0.90
2022-09-05T10:35:10.889Z,1.10
2022-09-05T10:35:17.164Z,0.80
2022-09-05T10:37:52.267Z,0.80
2022-09-05T10:40:23.380Z,0.90
2022-09-05T10:43:00.939Z,1.05
2022-09-05T10:45:40.283Z,1.02
2022-09-05T10:48:53.138Z,1.17
2022-09-05T10:51:32.551Z,1.05
2022-09-05T10:54:25.179Z,1.10
2022-09-05T10:57:13.414Z,0.80
2022-09-05T11:02:21.269Z,0.73
2022-09-05T11:03:14.921Z,0.80
2022-09-05T11:06:09.631Z,0.90
2022-09-05T11:08:54.040Z,0.88
2022-09-05T11:11:34.545Z,1.02
2022-09-05T11:14:26.699Z,0.75
2022-09-05T11:17:00.651Z,0.88
2022-09-05T11:19:44.851Z,0.75
2022-09-05T11:22:23.925Z,0.80
2022-09-05T11:24:55.893Z,0.77
2022-09-05T11:27:33.790Z,0.90
2022-09-05T11:30:05.957Z,0.70
2022-09-05T11:39:47.563Z,0.77
2022-09-05T11:40:06.903Z,0.75
2022-09-05T11:42:02.397Z,0.80
2022-09-05T11:44:36.455Z,0.80
2022-09-05T11:47:27.229Z,0.73
2022-09-05T11:50:15.515Z,0.77
2022-09-05T11:52:44.750Z,0.82
2022-09-05T11:55:40.167Z,0.82
2022-09-05T11:58:45.159Z,0.98
2022-09-05T12:01:41.758Z,1.10
2022-09-05T12:04:43.639Z,0.70
2022-09-05T12:07:40.634Z,0.50
2022-09-05T12:10:43.353Z,0.70
2022-09-05T12:13:31.901Z,0.60
2022-09-05T12:16:18.000Z,0.77
2022-09-05T12:19:19.016Z,0.60
2022-09-05T12:22:24.638Z,0.80
2022-09-05T12:25:26.228Z,0.80
2022-09-05T12:29:29.513Z,0.70
2022-09-05T12:32:19.670Z,0.70
2022-09-05T12:36:09.704Z,0.90
2022-09-05T12:40:28.646Z,0.70
2022-09-05T12:41:35.166Z,0.70
2022-09-05T12:43:39.387Z,0.70
2022-09-05T12:46:47.402Z,0.63
2022-09-05T12:49:35.313Z,1.10
2022-09-05T12:52:06.465Z,0.60
2022-09-05T12:54:56.907Z,0.70
2022-09-05T13:02:58.133Z,0.70
2022-09-05T13:03:11.484Z,0.52
2022-09-05T13:03:28.752Z,0.77
2022-09-05T13:06:25.449Z,0.75
2022-09-05T13:08:59.945Z,0.85
2022-09-05T13:14:53.082Z,0.60
2022-09-05T13:14:56.436Z,0.57
2022-09-05T13:17:44.207Z,0.60
2022-09-05T13:23:39.344Z,0.50
2022-09-05T13:26:23.939Z,0.50
2022-09-05T13:29:10.924Z,0.73
2022-09-05T13:37:59.204Z,0.65
2022-09-05T13:38:02.867Z,0.70
2022-09-05T13:38:11.574Z,0.63
2022-09-05T13:40:31.259Z,1.02
2022-09-05T13:43:26.551Z,0.90
2022-09-05T13:46:10.874Z,0.60
2022-09-05T13:51:39.146Z,0.70
2022-09-05T13:54:18.557Z,0.63
2022-09-05T13:57:32.726Z,0.60
2022-09-05T14:00:27.786Z,0.63
2022-09-05T14:03:31.639Z,0.63
2022-09-05T14:07:44.047Z,0.50
2022-09-05T14:10:03.073Z,0.60
2022-09-05T14:12:42.873Z,0.70
2022-09-05T14:15:34.768Z,0.70
2022-09-05T14:18:19.992Z,0.77
2022-09-05T14:21:10.605Z,0.63
2022-09-05T14:23:53.728Z,0.60
2022-09-05T14:26:49.142Z,0.77
2022-09-05T14:29:15.611Z,0.68
2022-09-05T14:37:19.203Z,0.80
2022-09-05T14:37:38.870Z,0.80
2022-09-05T14:38:24.963Z,0.80
2022-09-05T14:41:28.955Z,0.75
2022-09-05T14:44:06.752Z,0.77
2022-09-05T14:46:51.485Z,0.60
2022-09-05T14:49:54.998Z,0.73
2022-09-05T14:52:30.628Z,0.70
2022-09-05T15:02:41.282Z,0.70
2022-09-05T15:02:52.183Z,0.90
2022-09-05T15:06:33.126Z,0.80
2022-09-05T15:11:24.641Z,0.90
2022-09-05T15:12:23.171Z,0.80
2022-09-05T15:14:41.635Z,0.70
2022-09-05T15:17:08.505Z,0.95
2022-09-05T15:20:05.697Z,0.80
2022-09-05T15:22:37.466Z,0.80
2022-09-05T15:25:17.164Z,0.60
2022-09-05T15:27:46.298Z,0.70
2022-09-05T15:30:36.534Z,0.90
2022-09-05T15:33:14.987Z,0.75
2022-09-05T15:35:44.651Z,1.20
2022-09-05T15:38:28.832Z,0.70
2022-09-05T15:41:20.031Z,0.70
2022-09-05T15:43:51.782Z,0.90
2022-09-05T15:49:04.141Z,0.68
2022-09-05T15:51:48.556Z,0.60
2022-09-05T15:55:00.567Z,0.90
2022-09-05T15:57:31.099Z,0.95
2022-09-05T16:00:02.103Z,0.80
2022-09-05T16:02:36.962Z,1.02
2022-09-05T16:10:34.228Z,0.80
2022-09-05T16:10:43.607Z,0.80
2022-09-05T16:12:01.688Z,1.10
2022-09-05T16:14:36.568Z,0.80
2022-09-05T16:22:51.156Z,0.90
2022-09-05T16:23:23.944Z,0.87
2022-09-05T16:23:31.785Z,0.65
2022-09-05T16:26:25.600Z,0.65
2022-09-05T16:29:10.398Z,0.80
2022-09-05T16:31:59.475Z,0.85
2022-09-05T16:34:54.338Z,0.73
2022-09-05T16:37:37.433Z,1.00
2022-09-05T16:40:07.197Z,0.90
2022-09-05T16:42:47.256Z,1.15
2022-09-05T16:45:46.759Z,0.75
2022-09-05T16:48:24.889Z,1.00
2022-09-05T16:51:11.699Z,0.88
2022-09-05T16:53:58.003Z,0.80
2022-09-05T16:56:35.313Z,0.73
2022-09-05T16:59:11.425Z,0.70
2022-09-05T17:02:06.707Z,0.98
2022-09-05T17:05:04.266Z,1.02
2022-09-05T17:08:02.813Z,0.90
2022-09-05T17:11:03.555Z,0.98
2022-09-05T17:13:34.515Z,0.90
2022-09-05T17:16:03.600Z,1.10
2022-09-05T17:18:36.275Z,0.90
2022-09-05T17:21:09.317Z,1.20
2022-09-05T17:29:15.955Z,1.13
2022-09-05T17:29:30.255Z,1.17
2022-09-05T17:32:38.932Z,1.17
2022-09-05T17:35:23.578Z,1.20
2022-09-05T17:38:12.371Z,1.05
2022-09-05T17:41:26.712Z,1.02
2022-09-05T17:44:15.855Z,1.40
2022-09-05T17:46:51.660Z,1.33
2022-09-05T17:49:43.321Z,1.17
2022-09-05T17:52:18.589Z,1.27
2022-09-05T17:54:50.157Z,1.42
2022-09-05T17:57:29.412Z,1.50
2022-09-05T18:00:07.084Z,1.27
2022-09-05T18:02:56.522Z,1.50
2022-09-05T18:05:54.828Z,1.25
2022-09-05T18:08:44.342Z,1.30
2022-09-05T18:11:34.062Z,1.55
2022-09-05T18:14:39.944Z,1.45
2022-09-05T18:17:38.517Z,1.45
2022-09-05T18:20:16.426Z,1.52
2022-09-05T18:23:37.247Z,1.60
2022-09-05T18:26:11.300Z,1.70
2022-09-05T18:29:05.762Z,1.75
2022-09-05T18:31:41.631Z,1.63
2022-09-05T18:34:19.115Z,1.83
2022-09-05T18:36:48.842Z,1.60
2022-09-05T18:39:24.835Z,1.58
2022-09-05T18:42:26.430Z,1.90
2022-09-05T18:44:58.958Z,1.80
2022-09-05T18:47:51.061Z,2.17
2022-09-05T18:50:27.539Z,2.15
2022-09-05T18:53:10.090Z,1.63
2022-09-05T18:56:13.711Z,1.67
2022-09-05T18:58:51.760Z,1.70
2022-09-05T19:01:38.558Z,1.75
2022-09-05T19:04:40.289Z,1.95
2022-09-05T19:07:17.629Z,1.88
2022-09-05T19:10:36.167Z,1.70
2022-09-05T19:12:59.016Z,1.92
2022-09-05T19:15:31.026Z,1.98
2022-09-05T19:18:26.546Z,2.03
2022-09-05T19:20:56.209Z,1.92
2022-09-05T19:23:30.097Z,2.00
2022-09-05T19:26:03.597Z,2.25
2022-09-05T19:36:51.607Z,2.05
2022-09-05T19:36:56.962Z,2.10
2022-09-05T19:37:06.988Z,2.15
2022-09-05T19:37:28.953Z,2.47
2022-09-05T19:43:05.913Z,2.47
2022-09-05T19:47:36.581Z,2.15
2022-09-05T19:47:48.257Z,2.30
2022-09-05T19:48:28.537Z,2.42
2022-09-05T19:51:17.896Z,2.25
2022-09-05T19:53:59.684Z,2.28
2022-09-05T19:56:38.921Z,2.00
2022-09-05T19:59:27.412Z,2.17
2022-09-05T20:02:02.842Z,1.92
2022-09-05T20:04:35.873Z,2.10
2022-09-05T20:07:20.634Z,2.10
2022-09-05T20:09:48.868Z,2.13
2022-09-05T20:12:28.765Z,2.55
2022-09-05T20:14:55.761Z,2.40
2022-09-05T20:17:32.129Z,2.20
2022-09-05T20:20:11.331Z,2.40
2022-09-05T20:22:49.000Z,2.50
2022-09-05T20:25:36.037Z,1.95
2022-09-05T20:28:10.168Z,2.25
2022-09-05T20:30:41.821Z,2.40
2022-09-05T20:33:32.883Z,2.08
2022-09-05T20:42:14.080Z,2.22
2022-09-05T20:43:31.859Z,2.20
2022-09-05T20:43:35.225Z,2.10
2022-09-05T20:44:50.506Z,1.90
2022-09-05T20:54:05.642Z,2.72
2022-09-05T20:54:15.413Z,2.30
2022-09-05T20:54:24.889Z,2.20
2022-09-05T20:58:48.327Z,1.95
2022-09-05T21:01:23.205Z,2.42
2022-09-05T21:03:58.901Z,1.98
2022-09-05T21:06:29.490Z,2.70
2022-09-05T21:09:16.082Z,2.30
2022-09-05T21:11:51.430Z,2.35
2022-09-05T21:14:22.431Z,2.42
2022-09-05T21:17:01.293Z,2.65
2022-09-05T21:19:41.525Z,2.50
2022-09-05T21:22:32.677Z,2.40
2022-09-05T21:25:14.565Z,2.53
2022-09-05T21:27:42.462Z,2.00
2022-09-05T21:30:36.063Z,2.25
2022-09-05T21:33:07.274Z,2.65
2022-09-05T21:35:42.183Z,2.20
2022-09-05T21:38:32.299Z,2.15
2022-09-05T21:41:05.058Z,2.22
2022-09-05T21:47:33.143Z,2.13
2022-09-05T21:47:49.621Z,2.33
2022-09-05T21:49:09.005Z,2.40
2022-09-05T21:51:37.237Z,2.20
2022-09-05T21:57:01.788Z,2.20
2022-09-05T21:59:27.966Z,2.65
2022-09-05T21:59:47.425Z,1.98
2022-09-05T22:02:16.778Z,2.05
2022-09-05T22:04:43.824Z,2.10
2022-09-05T22:07:20.301Z,2.20
2022-09-05T22:09:58.636Z,2.28
2022-09-05T22:12:33.661Z,2.55
2022-09-05T22:15:26.281Z,2.35
2022-09-05T22:17:51.269Z,2.30
2022-09-05T22:20:22.119Z,2.45
2022-09-05T22:22:56.546Z,2.30
2022-09-05T22:25:31.154Z,2.50
2022-09-05T22:28:06.411Z,2.40
2022-09-05T22:30:35.882Z,2.28
2022-09-05T22:33:05.485Z,2.33
2022-09-05T22:35:37.137Z,2.47
2022-09-05T22:38:10.885Z,2.42
2022-09-05T22:40:41.166Z,2.42
2022-09-05T22:43:10.056Z,2.42
2022-09-05T22:45:39.169Z,2.40
2022-09-05T22:48:11.729Z,2.50
2022-09-05T22:50:39.450Z,2.75
2022-09-05T22:53:08.480Z,2.25
2022-09-05T22:55:36.788Z,2.45
2022-09-05T22:58:04.822Z,2.53
2022-09-05T23:00:31.484Z,2.28
2022-09-05T23:02:58.874Z,2.60
2022-09-05T23:05:25.929Z,2.20
2022-09-05T23:07:52.807Z,2.40
2022-09-05T23:10:19.891Z,2.38
2022-09-05T23:12:46.547Z,2.30
2022-09-05T23:15:13.239Z,2.50
2022-09-05T23:17:39.780Z,2.25
2022-09-05T23:20:06.824Z,2.22
2022-09-05T23:22:36.041Z,2.28
2022-09-05T23:25:03.295Z,2.65
2022-09-05T23:27:35.051Z,2.70
2022-09-05T23:30:01.608Z,2.50
2022-09-05T23:32:28.150Z,2.83
2022-09-05T23:34:54.939Z,2.65
2022-09-05T23:37:21.539Z,2.40
2022-09-05T23:39:48.098Z,2.47
2022-09-05T23:42:14.953Z,2.80
2022-09-05T23:44:41.719Z,2.60
2022-09-05T23:47:08.318Z,2.70
2022-09-05T23:49:34.841Z,3.13
2022-09-05T23:52:01.497Z,2.85
2022-09-05T23:54:28.041Z,2.55
2022-09-05T23:56:54.807Z,2.47
2022-09-05T23:59:21.326Z,2.25
